Time;durP1;ratioP1;P1;durP2;ratioP2;P2;SDS_P1;SDS_P2;PMS_P1;PMS_P2;Temp;Humidity;BMP_temperature;BMP_pressure;BME280_temperature;BME280_humidity;BME280_pressure;Samples;Min_cycle;Max_cycle;Signal;HPM_P1;HPM_P2
2022/06/09 00:01:15;;;;;;;8.38;1.60;;;11.00;99.90;;;;;;4975260;28;20549;-87
2022/06/09 00:03:52;;;;;;;7.55;1.70;;;11.00;99.90;;;;;;4974575;28;20043;-88
2022/06/09 00:06:18;;;;;;;6.75;0.95;;;10.90;99.90;;;;;;4976691;28;20413;-88
2022/06/09 00:08:47;;;;;;;7.72;1.17;;;10.90;99.90;;;;;;4975178;28;20086;-88
2022/06/09 00:11:16;;;;;;;6.18;1.15;;;10.90;99.90;;;;;;4976372;28;20133;-86
2022/06/09 00:13:43;;;;;;;5.78;0.88;;;10.90;99.90;;;;;;4975987;28;20033;-88
2022/06/09 00:16:12;;;;;;;5.28;1.38;;;10.90;99.90;;;;;;4978456;28;20122;-85
2022/06/09 00:18:37;;;;;;;12.73;1.30;;;10.90;99.90;;;;;;4976019;28;20108;-89
2022/06/09 00:21:03;;;;;;;6.15;1.50;;;10.90;99.90;;;;;;4975964;28;20457;-88
2022/06/09 00:23:29;;;;;;;4.18;1.42;;;10.90;99.90;;;;;;4976789;28;20106;-88
2022/06/09 00:25:55;;;;;;;8.82;2.42;;;10.90;99.90;;;;;;4983721;28;20109;-89
2022/06/09 00:28:20;;;;;;;6.30;1.60;;;10.80;99.90;;;;;;4976277;28;20018;-92
2022/06/09 00:30:46;;;;;;;3.42;1.30;;;10.90;99.90;;;;;;4989926;28;20015;-89
2022/06/09 00:33:13;;;;;;;6.15;1.83;;;10.90;99.90;;;;;;4976621;28;20087;-91
2022/06/09 00:35:40;;;;;;;6.78;1.30;;;11.00;99.90;;;;;;4959607;28;20026;-87
2022/06/09 00:38:06;;;;;;;5.50;1.52;;;11.00;99.90;;;;;;4975849;28;20044;-87
2022/06/09 00:40:32;;;;;;;7.53;1.38;;;10.90;99.90;;;;;;4976771;28;20062;-91
2022/06/09 00:43:02;;;;;;;5.88;1.40;;;10.90;99.90;;;;;;5030143;23;20505;-90
2022/06/09 00:45:28;;;;;;;9.93;1.70;;;10.90;99.90;;;;;;5028906;28;20021;-91
2022/06/09 00:48:00;;;;;;;6.70;1.73;;;10.80;99.90;;;;;;5047252;28;20029;-91
2022/06/09 00:50:28;;;;;;;5.32;1.10;;;10.80;99.90;;;;;;5035021;28;20025;-93
2022/06/09 00:52:58;;;;;;;7.00;1.45;;;10.80;99.90;;;;;;5015742;28;20056;-92
2022/06/09 00:55:26;;;;;;;8.23;1.48;;;10.80;99.90;;;;;;5025998;28;20030;-88
2022/06/09 00:57:59;;;;;;;2.65;1.55;;;10.70;99.90;;;;;;5015144;28;20228;-88
2022/06/09 01:00:34;;;;;;;6.18;1.63;;;10.70;99.90;;;;;;5017407;28;20041;-88
2022/06/09 01:03:01;;;;;;;12.70;1.80;;;10.60;99.90;;;;;;5033523;28;20079;-90
2022/06/09 01:05:30;;;;;;;8.65;1.58;;;10.60;99.90;;;;;;5029050;28;20029;-92
2022/06/09 01:08:00;;;;;;;8.02;1.77;;;10.60;99.90;;;;;;5014317;28;20032;-92
2022/06/09 01:10:29;;;;;;;9.30;1.45;;;10.50;99.90;;;;;;5009770;28;20061;-89
2022/06/09 01:12:56;;;;;;;5.13;1.60;;;10.50;99.90;;;;;;5027209;28;20017;-91
2022/06/09 01:15:27;;;;;;;6.93;1.85;;;10.60;99.90;;;;;;5033673;28;20044;-89
2022/06/09 01:18:24;;;;;;;2.13;1.27;;;10.70;99.90;;;;;;5033736;28;20029;-89
2022/06/09 01:21:04;;;;;;;3.65;1.40;;;10.70;99.90;;;;;;5032837;28;20370;-88
2022/06/09 01:23:33;;;;;;;14.57;1.83;;;10.60;99.90;;;;;;5033081;28;20013;-90
2022/06/09 01:26:07;;;;;;;6.97;1.73;;;10.70;99.90;;;;;;5033497;28;20026;-89
2022/06/09 01:28:51;;;;;;;9.35;2.10;;;10.70;99.90;;;;;;5025372;28;20076;-90
2022/06/09 01:31:55;;;;;;;3.97;1.40;;;10.60;99.90;;;;;;5031420;28;20085;-89
2022/06/09 01:34:42;;;;;;;7.40;1.67;;;10.60;99.90;;;;;;5032372;28;20017;-92
2022/06/09 01:37:19;;;;;;;6.00;1.60;;;10.50;99.90;;;;;;5026091;28;20025;-91
2022/06/09 01:39:53;;;;;;;2.75;1.08;;;10.60;99.90;;;;;;5033591;28;20014;-91
2022/06/09 01:42:24;;;;;;;6.22;1.25;;;10.60;99.90;;;;;;5053758;23;20020;-90
2022/06/09 01:44:54;;;;;;;7.22;1.75;;;10.60;99.90;;;;;;5020134;28;20111;-88
2022/06/09 01:47:22;;;;;;;6.13;1.38;;;10.60;99.90;;;;;;5034084;28;20013;-91
2022/06/09 01:49:52;;;;;;;9.70;1.88;;;10.60;99.90;;;;;;5015824;28;20017;-91
2022/06/09 01:52:19;;;;;;;10.13;1.70;;;10.60;99.90;;;;;;5033373;28;20029;-90
2022/06/09 01:54:46;;;;;;;9.27;1.70;;;10.60;99.90;;;;;;5020027;28;20026;-87
2022/06/09 01:57:23;;;;;;;10.85;1.77;;;10.60;99.90;;;;;;5033081;28;20025;-88
2022/06/09 02:00:00;;;;;;;5.05;1.50;;;10.60;99.90;;;;;;5040237;28;20440;-91
2022/06/09 02:02:30;;;;;;;6.00;1.67;;;10.60;99.90;;;;;;5040569;28;20045;-90
2022/06/09 02:05:04;;;;;;;4.97;1.67;;;10.60;99.90;;;;;;5033693;28;20112;-92
2022/06/09 02:07:33;;;;;;;3.85;1.30;;;10.60;99.90;;;;;;5039138;28;20021;-87
2022/06/09 02:10:18;;;;;;;8.50;1.23;;;10.60;99.90;;;;;;5031982;28;20556;-87
2022/06/09 02:12:45;;;;;;;6.93;1.30;;;10.50;99.90;;;;;;5037419;28;20070;-87
2022/06/09 02:15:16;;;;;;;6.43;1.55;;;10.50;99.90;;;;;;5034481;28;20029;-90
2022/06/09 02:17:47;;;;;;;4.45;1.23;;;10.50;99.90;;;;;;5031894;28;20033;-87
2022/06/09 02:20:16;;;;;;;13.40;1.65;;;10.50;99.90;;;;;;5033432;28;20028;-88
2022/06/09 02:22:42;;;;;;;15.18;1.70;;;10.50;99.90;;;;;;5033509;28;20486;-90
2022/06/09 02:25:08;;;;;;;8.45;1.77;;;10.60;99.90;;;;;;5047692;28;20064;-88
2022/06/09 02:27:34;;;;;;;11.10;1.50;;;10.70;99.90;;;;;;5015591;28;20378;-90
2022/06/09 02:29:59;;;;;;;11.73;1.77;;;10.80;99.90;;;;;;5033508;28;20502;-87
2022/06/09 02:32:25;;;;;;;3.85;1.20;;;10.80;99.90;;;;;;5040111;28;20029;-91
2022/06/09 02:34:51;;;;;;;7.03;1.70;;;10.90;99.90;;;;;;5032702;28;20037;-89
2022/06/09 02:37:17;;;;;;;6.35;1.63;;;11.00;99.90;;;;;;5045052;28;20105;-89
2022/06/09 02:39:42;;;;;;;7.40;1.92;;;11.10;99.90;;;;;;5037868;28;20016;-90
2022/06/09 02:42:08;;;;;;;5.95;1.10;;;11.10;99.90;;;;;;5061365;23;20049;-92
2022/06/09 02:44:34;;;;;;;7.80;2.05;;;11.10;99.90;;;;;;5022095;28;20061;-90
2022/06/09 02:47:00;;;;;;;10.63;1.60;;;11.10;99.90;;;;;;5010850;28;20080;-89
2022/06/09 02:49:26;;;;;;;4.70;1.27;;;11.10;99.90;;;;;;5013619;28;20029;-88
2022/06/09 02:51:54;;;;;;;4.43;1.08;;;11.00;99.90;;;;;;5011677;28;20036;-91
2022/06/09 02:54:20;;;;;;;7.38;1.40;;;10.90;99.90;;;;;;5012167;28;20030;-89
2022/06/09 02:56:47;;;;;;;10.05;1.45;;;10.90;99.90;;;;;;5012340;28;20113;-89
2022/06/09 02:59:13;;;;;;;6.13;1.42;;;10.90;99.90;;;;;;5011464;28;20057;-89
2022/06/09 03:01:39;;;;;;;12.27;1.95;;;10.90;99.90;;;;;;5010543;28;20022;-91
2022/06/09 03:04:06;;;;;;;4.05;1.88;;;10.90;99.90;;;;;;5010439;28;20128;-90
2022/06/09 03:06:33;;;;;;;7.20;1.45;;;10.80;99.90;;;;;;5010942;28;20049;-90
2022/06/09 03:08:59;;;;;;;5.70;1.27;;;10.70;99.90;;;;;;5010725;28;20034;-89
2022/06/09 03:11:25;;;;;;;7.15;1.70;;;10.70;99.90;;;;;;5010603;28;20030;-92
2022/06/09 03:13:51;;;;;;;7.88;1.60;;;10.70;99.90;;;;;;5010009;28;20097;-89
2022/06/09 03:16:17;;;;;;;10.32;1.88;;;10.70;99.90;;;;;;5011667;28;20026;-90
2022/06/09 03:18:44;;;;;;;9.25;1.60;;;10.80;99.90;;;;;;5010859;28;20030;-91
2022/06/09 03:21:12;;;;;;;7.63;1.48;;;10.90;99.90;;;;;;5010513;28;20445;-89
2022/06/09 03:23:37;;;;;;;9.82;1.88;;;10.90;99.90;;;;;;5005461;28;20041;-91
2022/06/09 03:26:04;;;;;;;13.48;1.83;;;11.00;99.90;;;;;;5012162;28;20631;-90
2022/06/09 03:28:30;;;;;;;7.90;1.30;;;11.10;99.90;;;;;;5012775;28;20033;-89
2022/06/09 03:30:56;;;;;;;10.15;1.50;;;11.10;99.90;;;;;;5012257;28;20034;-93
2022/06/09 03:33:21;;;;;;;9.98;1.85;;;11.10;99.90;;;;;;5012799;28;20434;-91
2022/06/09 03:35:47;;;;;;;7.07;1.50;;;11.10;99.90;;;;;;5013011;28;20494;-91
2022/06/09 03:38:13;;;;;;;16.60;2.55;;;11.20;99.90;;;;;;5012523;28;20475;-89
2022/06/09 03:40:40;;;;;;;10.43;1.85;;;11.10;99.90;;;;;;5012584;28;20530;-90
2022/06/09 03:43:06;;;;;;;5.97;1.92;;;11.10;99.90;;;;;;5043407;23;20442;-89
2022/06/09 03:45:33;;;;;;;9.85;1.60;;;11.10;99.90;;;;;;5008408;28;20030;-89
2022/06/09 03:47:59;;;;;;;4.80;1.65;;;11.20;99.90;;;;;;4992620;28;20026;-89
2022/06/09 03:50:27;;;;;;;5.50;1.30;;;11.20;99.90;;;;;;4992803;28;20225;-90
2022/06/09 03:52:53;;;;;;;4.82;1.40;;;11.20;99.90;;;;;;4993543;28;20026;-92
2022/06/09 03:55:19;;;;;;;6.93;1.63;;;11.10;99.90;;;;;;4988940;28;20029;-94
2022/06/09 03:57:45;;;;;;;5.97;1.58;;;11.10;99.90;;;;;;4988078;28;20105;-91
2022/06/09 04:00:19;;;;;;;2.70;1.05;;;11.10;99.90;;;;;;4988953;28;20043;-92
2022/06/09 04:02:44;;;;;;;9.02;1.83;;;11.10;99.90;;;;;;4988643;28;20022;-91
2022/06/09 04:05:10;;;;;;;12.05;1.85;;;11.10;99.90;;;;;;4987923;28;20448;-90
2022/06/09 04:07:36;;;;;;;3.75;1.30;;;11.10;99.90;;;;;;4995416;28;20023;-92
2022/06/09 04:10:03;;;;;;;6.40;1.42;;;11.10;99.90;;;;;;4989380;28;20101;-94
2022/06/09 04:12:28;;;;;;;5.95;1.40;;;11.10;99.90;;;;;;4996799;28;20027;-90
2022/06/09 04:14:54;;;;;;;8.23;1.70;;;11.00;99.90;;;;;;4991283;28;20033;-90
2022/06/09 04:17:20;;;;;;;8.45;1.45;;;10.90;99.90;;;;;;4995642;28;20076;-90
2022/06/09 04:19:46;;;;;;;9.82;2.13;;;10.90;99.90;;;;;;4994934;28;20025;-92
2022/06/09 04:22:12;;;;;;;9.35;2.20;;;10.90;99.90;;;;;;4981011;28;20115;-89
2022/06/09 04:24:38;;;;;;;10.88;1.83;;;10.80;99.90;;;;;;4994944;28;20033;-90
2022/06/09 04:27:04;;;;;;;8.52;2.05;;;10.80;99.90;;;;;;4990544;28;20023;-91
2022/06/09 04:29:30;;;;;;;10.35;1.60;;;10.80;99.90;;;;;;4990805;28;20037;-90
2022/06/09 04:31:56;;;;;;;13.10;1.83;;;10.80;99.90;;;;;;4994683;28;20061;-91
2022/06/09 04:34:22;;;;;;;6.32;1.23;;;10.80;99.90;;;;;;4983624;28;20050;-91
2022/06/09 04:36:48;;;;;;;11.20;1.85;;;10.80;99.90;;;;;;4983620;28;20015;-90
2022/06/09 04:39:14;;;;;;;10.30;1.65;;;10.80;99.90;;;;;;4992974;28;20380;-89
2022/06/09 04:41:40;;;;;;;8.20;1.27;;;10.80;99.90;;;;;;4993039;28;20023;-89
2022/06/09 04:44:07;;;;;;;7.70;1.55;;;10.80;99.90;;;;;;5072947;22;20072;-91
2022/06/09 04:46:32;;;;;;;5.72;1.30;;;10.80;99.90;;;;;;5081474;28;20021;-92
2022/06/09 04:48:58;;;;;;;5.45;1.42;;;10.80;99.90;;;;;;5052935;28;20083;-91
2022/06/09 04:51:27;;;;;;;2.22;1.00;;;10.80;99.90;;;;;;5053531;28;20052;-90
2022/06/09 04:53:54;;;;;;;7.53;1.33;;;10.90;99.90;;;;;;5040713;28;20030;-90
2022/06/09 04:56:21;;;;;;;3.08;1.10;;;10.90;99.90;;;;;;5037072;28;20025;-91
2022/06/09 04:58:48;;;;;;;6.88;1.52;;;10.90;99.90;;;;;;5045744;28;20055;-91
2022/06/09 05:01:23;;;;;;;4.45;1.17;;;10.90;99.90;;;;;;5053836;28;20544;-91
2022/06/09 05:03:50;;;;;;;4.32;1.30;;;11.00;99.90;;;;;;5036400;28;20033;-92
2022/06/09 05:06:18;;;;;;;10.70;1.20;;;11.00;99.90;;;;;;5036280;28;20025;-92
2022/06/09 05:08:44;;;;;;;5.55;1.38;;;11.10;99.90;;;;;;5037541;28;20036;-90
2022/06/09 05:11:10;;;;;;;2.08;1.38;;;11.10;99.90;;;;;;5040408;28;20029;-91
2022/06/09 05:13:37;;;;;;;3.28;1.38;;;11.20;99.90;;;;;;5035550;28;20032;-90
2022/06/09 05:16:04;;;;;;;10.10;1.50;;;11.20;99.90;;;;;;5032170;28;21019;-89
2022/06/09 05:18:32;;;;;;;11.93;2.42;;;11.30;99.90;;;;;;5034788;28;20056;-90
2022/06/09 05:20:59;;;;;;;10.57;1.63;;;11.30;99.90;;;;;;5036674;28;20087;-89
2022/06/09 05:23:25;;;;;;;1.80;0.90;;;11.50;99.90;;;;;;5055307;28;20065;-90
2022/06/09 05:25:53;;;;;;;6.45;1.27;;;11.50;99.90;;;;;;5048708;28;20038;-91
2022/06/09 05:28:21;;;;;;;4.07;1.15;;;11.60;99.90;;;;;;5022149;28;20045;-90
2022/06/09 05:30:47;;;;;;;5.43;1.35;;;11.60;99.90;;;;;;5039705;28;20107;-91
2022/06/09 05:33:14;;;;;;;7.57;1.98;;;11.60;99.90;;;;;;5039739;28;20120;-91
2022/06/09 05:35:40;;;;;;;1.20;0.75;;;11.60;99.90;;;;;;5040629;28;20017;-92
2022/06/09 05:46:19;;;;;;;9.10;1.63;;;11.80;99.90;;;;;;4985605;28;20022;-89
2022/06/09 05:48:46;;;;;;;3.47;1.30;;;11.90;99.90;;;;;;4992057;28;20014;-88
2022/06/09 05:51:15;;;;;;;6.25;1.63;;;12.00;99.90;;;;;;4992394;28;20022;-89
2022/06/09 05:53:41;;;;;;;7.68;1.52;;;12.20;99.90;;;;;;4992426;28;20026;-86
2022/06/09 05:56:08;;;;;;;10.23;1.40;;;12.30;99.90;;;;;;4992935;28;20033;-88
2022/06/09 05:58:35;;;;;;;5.80;1.40;;;12.40;99.90;;;;;;4993901;28;20026;-89
2022/06/09 06:01:07;;;;;;;5.03;2.13;;;12.50;99.90;;;;;;4998580;28;20030;-89
2022/06/09 06:03:33;;;;;;;7.93;1.40;;;12.60;99.90;;;;;;4993499;28;20029;-90
2022/06/09 06:08:43;;;;;;;7.13;1.50;;;12.80;99.90;;;;;;5001688;28;20034;-86
2022/06/09 06:11:10;;;;;;;13.55;2.50;;;12.90;99.90;;;;;;5004438;28;20030;-87
2022/06/09 06:13:36;;;;;;;6.82;1.38;;;13.00;99.90;;;;;;4999225;28;20106;-90
2022/06/09 06:16:01;;;;;;;9.55;1.60;;;13.20;99.90;;;;;;4992196;28;20121;-86
2022/06/09 06:18:28;;;;;;;8.23;2.22;;;13.30;99.90;;;;;;4990495;28;20022;-87
2022/06/09 06:20:55;;;;;;;8.25;1.83;;;13.40;99.90;;;;;;4992294;28;20034;-86
2022/06/09 06:23:22;;;;;;;6.05;1.55;;;13.70;99.90;;;;;;5000446;28;20027;-86
2022/06/09 06:25:48;;;;;;;8.68;2.05;;;14.10;99.90;;;;;;4992617;28;20038;-88
2022/06/09 06:28:14;;;;;;;5.65;1.40;;;14.50;99.90;;;;;;5003391;28;20017;-91
2022/06/09 06:30:40;;;;;;;3.85;0.98;;;15.00;99.90;;;;;;4992797;28;20033;-91
2022/06/09 06:33:06;;;;;;;6.18;1.63;;;15.30;99.90;;;;;;4991705;28;20026;-90
2022/06/09 06:35:31;;;;;;;12.25;1.77;;;15.80;99.90;;;;;;4991731;28;20029;-88
2022/06/09 06:37:57;;;;;;;7.57;1.23;;;16.00;99.90;;;;;;4991807;28;20026;-89
2022/06/09 06:40:23;;;;;;;7.07;1.42;;;16.10;99.90;;;;;;4992033;28;20595;-90
2022/06/09 06:42:48;;;;;;;11.85;1.98;;;16.10;99.90;;;;;;5029758;23;20044;-96
2022/06/09 06:45:15;;;;;;;5.65;1.42;;;16.20;99.90;;;;;;5048535;28;20114;-91
2022/06/09 06:47:41;;;;;;;10.93;1.42;;;16.20;99.90;;;;;;5071767;28;20021;-91
2022/06/09 06:50:09;;;;;;;6.47;1.10;;;16.00;99.90;;;;;;5054778;28;20025;-88
2022/06/09 06:52:35;;;;;;;3.75;1.00;;;16.00;99.90;;;;;;5050935;28;20029;-90
2022/06/09 06:55:01;;;;;;;6.05;1.02;;;15.90;99.90;;;;;;5029831;28;20504;-90
2022/06/09 06:57:26;;;;;;;7.93;1.10;;;15.80;99.90;;;;;;5034314;28;20031;-89
2022/06/09 06:59:52;;;;;;;8.20;1.35;;;15.50;99.90;;;;;;5030590;28;20025;-89
2022/06/09 07:02:18;;;;;;;7.15;1.17;;;15.40;99.90;;;;;;5028043;28;20079;-91
2022/06/09 07:04:44;;;;;;;4.60;1.50;;;15.20;99.90;;;;;;5031336;28;20415;-93
2022/06/09 07:07:11;;;;;;;9.82;1.35;;;15.20;99.90;;;;;;5033006;28;20044;-90
2022/06/09 07:09:37;;;;;;;5.90;1.67;;;15.20;99.90;;;;;;5036044;28;20036;-91
2022/06/09 07:12:04;;;;;;;5.88;1.65;;;15.10;99.90;;;;;;5027599;28;20799;-87
2022/06/09 07:14:31;;;;;;;5.45;1.65;;;15.30;99.90;;;;;;5033957;28;20021;-94
2022/06/09 07:16:57;;;;;;;4.07;1.05;;;15.30;99.90;;;;;;5034350;28;20052;-93
2022/06/09 07:19:24;;;;;;;4.95;1.40;;;15.40;99.90;;;;;;5042469;28;20025;-95
2022/06/09 07:21:49;;;;;;;4.20;1.00;;;15.60;99.90;;;;;;5029129;28;20018;-91
2022/06/09 07:24:15;;;;;;;3.63;0.95;;;15.70;99.90;;;;;;5055308;28;20033;-93
2022/06/09 07:26:42;;;;;;;7.47;1.38;;;15.80;99.90;;;;;;5053661;28;20040;-92
2022/06/09 07:29:08;;;;;;;7.57;1.02;;;15.90;99.90;;;;;;5039303;28;20036;-92
2022/06/09 07:31:34;;;;;;;6.05;1.10;;;16.00;99.90;;;;;;5037735;28;20017;-92
2022/06/09 07:33:59;;;;;;;4.13;1.17;;;16.00;99.90;;;;;;5038649;28;20025;-91
2022/06/09 07:36:26;;;;;;;3.88;1.23;;;15.90;99.90;;;;;;5038610;28;20032;-91
2022/06/09 07:38:52;;;;;;;3.97;1.10;;;15.90;99.90;;;;;;5044844;28;20041;-94
2022/06/09 07:41:20;;;;;;;4.65;1.48;;;15.80;99.90;;;;;;5028439;28;20069;-91
2022/06/09 07:43:47;;;;;;;7.10;1.40;;;15.90;99.90;;;;;;5059251;23;20065;-91
2022/06/09 07:46:14;;;;;;;7.57;1.60;;;15.90;99.90;;;;;;5011143;28;20104;-91
2022/06/09 07:48:41;;;;;;;3.70;1.05;;;15.90;99.90;;;;;;5025442;28;20027;-89
2022/06/09 07:51:07;;;;;;;5.03;1.13;;;16.00;99.90;;;;;;5011199;28;20025;-88
2022/06/09 07:53:32;;;;;;;7.05;1.58;;;16.00;99.90;;;;;;5015776;28;20026;-89
2022/06/09 07:55:58;;;;;;;7.13;1.15;;;16.10;99.90;;;;;;5016550;28;20037;-91
2022/06/09 07:58:24;;;;;;;1.98;1.00;;;16.00;99.90;;;;;;5016632;28;20055;-91
2022/06/09 08:00:50;;;;;;;5.88;1.77;;;16.00;99.90;;;;;;5028419;28;20021;-91
2022/06/09 08:03:22;;;;;;;7.80;1.33;;;16.10;99.90;;;;;;5032507;28;20029;-89
2022/06/09 08:05:49;;;;;;;4.45;1.33;;;16.10;99.90;;;;;;5016741;28;20026;-91
2022/06/09 08:08:15;;;;;;;2.95;0.90;;;16.30;99.90;;;;;;5016334;28;20046;-91
2022/06/09 08:10:42;;;;;;;6.15;0.90;;;16.40;99.90;;;;;;5016724;28;20025;-89
2022/06/09 08:13:09;;;;;;;6.82;1.10;;;16.60;99.90;;;;;;5025854;28;20029;-88
2022/06/09 08:15:35;;;;;;;2.92;1.25;;;16.70;99.90;;;;;;5016256;28;20025;-92
2022/06/09 08:18:01;;;;;;;4.57;1.23;;;16.80;99.90;;;;;;5033932;28;20025;-86
2022/06/09 08:20:31;;;;;;;1.90;0.93;;;16.90;99.90;;;;;;5034487;28;20022;-92
2022/06/09 08:23:09;;;;;;;3.17;0.82;;;16.90;99.90;;;;;;5034663;28;20021;-89
2022/06/09 08:25:36;;;;;;;7.85;0.82;;;17.10;99.90;;;;;;5010694;28;20030;-91
2022/06/09 08:28:03;;;;;;;5.40;1.00;;;17.30;99.90;;;;;;5021411;28;20037;-90
2022/06/09 08:30:30;;;;;;;3.08;1.02;;;17.70;99.90;;;;;;5016302;28;20022;-92
2022/06/09 08:32:57;;;;;;;4.30;0.82;;;18.20;99.90;;;;;;5014583;28;20392;-90
2022/06/09 08:35:24;;;;;;;4.40;1.02;;;18.80;99.90;;;;;;5029475;28;20083;-93
2022/06/09 08:37:51;;;;;;;6.30;0.70;;;19.00;97.70;;;;;;5030038;28;20022;-91
2022/06/09 08:40:24;;;;;;;5.28;0.73;;;19.40;97.40;;;;;;5016201;28;20022;-93
2022/06/09 08:43:39;;;;;;;6.43;0.95;;;20.50;97.40;;;;;;5040674;23;20484;-95
2022/06/09 08:46:35;;;;;;;4.55;1.25;;;20.80;92.70;;;;;;4930587;28;20354;-96
2022/06/09 08:49:03;;;;;;;7.07;1.20;;;21.00;91.60;;;;;;4969265;28;20449;-94
2022/06/09 08:51:47;;;;;;;6.38;1.02;;;21.80;90.40;;;;;;4981933;28;20027;-90
2022/06/09 08:54:17;;;;;;;9.93;0.98;;;22.70;78.60;;;;;;4989209;28;20611;-92
2022/06/09 08:56:45;;;;;;;6.17;0.87;;;23.00;72.60;;;;;;4997375;28;20057;-96
2022/06/09 08:59:17;;;;;;;4.20;0.90;;;22.90;75.50;;;;;;5001333;28;20264;-94
2022/06/09 09:01:45;;;;;;;6.60;1.27;;;22.70;75.80;;;;;;4992753;28;20058;-93
2022/06/09 09:04:11;;;;;;;8.13;1.67;;;22.90;74.50;;;;;;4965194;28;20403;-92
2022/06/09 09:07:09;;;;;;;4.72;0.88;;;23.00;74.60;;;;;;4994982;28;19995;-92
2022/06/09 09:09:36;;;;;;;7.18;1.73;;;23.60;76.10;;;;;;4963124;28;20038;-93
2022/06/09 09:12:11;;;;;;;6.90;1.42;;;24.40;70.10;;;;;;4990803;28;20381;-91
2022/06/09 09:14:59;;;;;;;6.88;1.02;;;24.80;69.30;;;;;;4991648;28;20018;-95
2022/06/09 09:17:28;;;;;;;8.25;1.08;;;25.90;64.40;;;;;;4988828;28;20018;-95
2022/06/09 09:20:05;;;;;;;6.60;1.40;;;26.90;61.00;;;;;;4999070;28;20018;-91
2022/06/09 09:23:02;;;;;;;6.13;1.08;;;27.00;63.00;;;;;;4991536;28;20099;-94
2022/06/09 09:25:45;;;;;;;6.32;0.90;;;26.70;61.50;;;;;;4982199;28;20038;-90
2022/06/09 09:28:27;;;;;;;4.50;0.77;;;25.60;60.70;;;;;;4970385;28;20026;-93
2022/06/09 09:31:04;;;;;;;9.38;1.35;;;24.70;60.70;;;;;;5002215;28;20018;-85
2022/06/09 09:33:30;;;;;;;8.57;1.48;;;24.50;62.60;;;;;;4998081;28;20026;-91
2022/06/09 09:36:02;;;;;;;6.20;1.15;;;23.90;63.50;;;;;;4991699;28;20023;-90
2022/06/09 09:38:38;;;;;;;6.88;1.30;;;23.50;64.30;;;;;;4992411;28;20027;-95
2022/06/09 09:41:04;;;;;;;5.50;1.00;;;23.20;69.00;;;;;;5001452;28;20034;-93
2022/06/09 09:43:37;;;;;;;5.95;0.80;;;22.80;69.20;;;;;;5028465;23;20038;-90
2022/06/09 09:46:04;;;;;;;5.13;1.10;;;22.60;71.80;;;;;;5011400;28;20060;-85
2022/06/09 09:48:36;;;;;;;6.15;1.52;;;22.50;69.80;;;;;;5004703;28;20030;-89
2022/06/09 09:51:11;;;;;;;7.88;1.50;;;22.30;72.70;;;;;;5017496;28;20075;-93
2022/06/09 09:53:46;;;;;;;5.45;1.15;;;22.30;72.80;;;;;;5012512;28;20033;-92
2022/06/09 09:56:16;;;;;;;7.28;1.42;;;22.50;72.60;;;;;;5021241;28;20491;-91
2022/06/09 09:58:47;;;;;;;8.60;1.30;;;22.50;72.20;;;;;;5020699;28;20033;-88
2022/06/09 10:01:16;;;;;;;;;;;22.30;73.00;;;;;;5021887;28;20084;-90
2022/06/09 10:09:47;;;;;;;6.88;0.90;;;22.90;70.90;;;;;;5019668;28;20075;-92
2022/06/09 10:12:34;;;;;;;9.88;1.25;;;22.90;72.20;;;;;;5020141;28;20057;-90
2022/06/09 10:15:11;;;;;;;7.13;1.25;;;22.80;70.60;;;;;;5020087;28;20021;-91
2022/06/09 10:17:44;;;;;;;8.48;1.25;;;22.60;72.30;;;;;;5020379;28;20422;-90
2022/06/09 10:20:37;;;;;;;6.07;1.35;;;22.70;74.60;;;;;;5026530;28;20075;-89
2022/06/09 10:23:31;;;;;;;10.98;1.42;;;22.40;72.60;;;;;;5010703;28;20030;-89
2022/06/09 10:26:08;;;;;;;9.50;1.80;;;22.20;73.10;;;;;;5017977;28;20051;-89
2022/06/09 10:29:05;;;;;;;4.45;0.75;;;22.00;74.70;;;;;;5018002;28;20018;-91
2022/06/09 10:31:51;;;;;;;8.25;1.02;;;22.30;76.70;;;;;;5018173;28;20025;-92
2022/06/09 10:34:17;;;;;;;4.82;1.00;;;22.60;77.80;;;;;;5021392;28;20022;-89
2022/06/09 10:37:25;;;;;;;6.75;0.85;;;22.40;75.80;;;;;;5019995;28;20022;-91
2022/06/09 10:40:06;;;;;;;9.52;1.52;;;22.00;77.60;;;;;;5024751;28;20029;-91
2022/06/09 10:45:36;;;;;;;6.32;0.75;;;21.30;82.70;;;;;;5077165;28;20358;-88
2022/06/09 10:57:54;;;;;;;10.73;2.33;;;20.00;90.90;;;;;;5020979;28;20036;-90
2022/06/09 11:00:29;;;;;;;7.00;0.82;;;19.70;94.40;;;;;;5075011;28;20028;-91
2022/06/09 11:02:59;;;;;;;9.38;1.38;;;19.80;94.60;;;;;;5095034;28;20081;-94
2022/06/09 11:05:46;;;;;;;9.68;1.60;;;20.20;94.80;;;;;;5088069;28;20028;-90
2022/06/09 11:08:53;;;;;;;6.43;1.27;;;20.30;95.20;;;;;;5065038;28;20096;-92
2022/06/09 11:11:48;;;;;;;6.45;1.73;;;20.40;94.70;;;;;;5063834;28;20408;-94
2022/06/09 11:14:44;;;;;;;5.22;0.93;;;20.50;95.10;;;;;;5082892;28;20025;-87
2022/06/09 11:17:36;;;;;;;8.40;1.60;;;20.60;94.20;;;;;;5080543;28;20069;-93
2022/06/09 11:20:09;;;;;;;10.57;1.33;;;20.70;92.00;;;;;;5066283;28;20028;-94
2022/06/09 11:22:41;;;;;;;6.35;1.27;;;20.80;92.20;;;;;;5091417;28;20097;-92
2022/06/09 11:25:25;;;;;;;;;;;20.70;92.90;;;;;;5070609;28;20052;-91
2022/06/09 11:28:03;;;;;;;7.85;1.08;;;20.70;91.30;;;;;;5089713;28;19940;-94
2022/06/09 11:30:29;;;;;;;9.25;1.77;;;20.80;90.70;;;;;;5070398;28;20028;-91
2022/06/09 11:33:32;;;;;;;6.85;1.10;;;20.60;90.80;;;;;;5061680;28;20564;-89
2022/06/09 11:36:26;;;;;;;8.70;1.45;;;20.50;91.30;;;;;;5085345;28;20033;-94
2022/06/09 11:39:26;;;;;;;6.50;1.08;;;20.10;90.80;;;;;;5079314;28;20497;-93
2022/06/09 11:42:11;;;;;;;7.95;1.02;;;19.90;93.10;;;;;;5081764;28;20106;-94
2022/06/09 11:44:39;;;;;;;8.25;1.92;;;19.80;94.40;;;;;;5030283;23;20101;-93
2022/06/09 11:47:11;;;;;;;6.68;1.30;;;20.00;93.60;;;;;;4997355;28;20044;-90
2022/06/09 11:49:42;;;;;;;10.68;1.67;;;19.90;93.00;;;;;;4997937;28;20026;-87
2022/06/09 11:52:24;;;;;;;6.32;1.30;;;20.00;96.70;;;;;;4996632;28;20033;-89
2022/06/09 11:54:53;;;;;;;4.20;0.95;;;20.20;94.80;;;;;;4997416;28;20089;-91
2022/06/09 11:57:34;;;;;;;6.60;1.20;;;20.40;92.70;;;;;;4996686;28;20022;-90
2022/06/09 12:00:26;;;;;;;11.55;1.08;;;20.20;92.80;;;;;;4991437;28;20023;-87
2022/06/09 12:03:13;;;;;;;3.95;0.90;;;20.20;92.50;;;;;;4991556;28;20100;-87
2022/06/09 12:05:52;;;;;;;5.90;1.33;;;20.40;90.80;;;;;;4990164;28;20110;-93
2022/06/09 12:09:22;;;;;;;7.75;1.20;;;20.30;90.10;;;;;;4986004;28;20387;-89
2022/06/09 12:12:04;;;;;;;6.05;0.93;;;20.60;91.30;;;;;;4961155;28;20169;-92
2022/06/09 12:14:35;;;;;;;8.90;1.02;;;20.70;89.20;;;;;;4973760;28;20539;-90
2022/06/09 12:17:08;;;;;;;6.95;1.58;;;20.70;89.40;;;;;;4988009;28;20041;-92
2022/06/09 12:19:49;;;;;;;5.07;1.27;;;20.60;86.90;;;;;;4990340;28;20092;-89
2022/06/09 12:22:42;;;;;;;9.30;1.77;;;20.50;88.70;;;;;;4996321;28;20133;-89
2022/06/09 12:25:08;;;;;;;8.93;1.05;;;20.60;91.80;;;;;;4995969;28;20095;-92
2022/06/09 12:27:37;;;;;;;11.38;1.00;;;20.50;83.90;;;;;;4997626;28;20032;-88
2022/06/09 12:30:03;;;;;;;5.45;1.33;;;20.40;88.80;;;;;;4995639;28;20026;-90
2022/06/09 12:32:46;;;;;;;12.18;1.30;;;20.70;90.50;;;;;;4995950;28;20574;-86
2022/06/09 12:35:45;;;;;;;5.30;0.88;;;20.50;89.70;;;;;;4995754;28;20074;-92
2022/06/09 12:38:32;;;;;;;7.40;1.17;;;20.90;87.80;;;;;;5002162;28;20049;-91
2022/06/09 12:41:02;;;;;;;4.53;1.02;;;21.70;81.90;;;;;;4996565;28;20025;-90
2022/06/09 12:43:36;;;;;;;3.15;1.00;;;22.50;77.40;;;;;;5027019;23;20483;-88
2022/06/09 12:46:19;;;;;;;8.10;1.10;;;23.60;70.60;;;;;;5005435;28;20480;-91
2022/06/09 12:48:47;;;;;;;3.50;0.68;;;24.90;67.90;;;;;;4987061;28;20076;-86
2022/06/09 12:51:26;;;;;;;9.13;1.40;;;25.90;62.20;;;;;;5012820;28;20034;-87
2022/06/09 12:54:07;;;;;;;6.57;1.08;;;25.30;58.40;;;;;;5005386;28;20022;-92
2022/06/09 12:56:44;;;;;;;5.45;0.80;;;24.30;61.80;;;;;;5002177;28;20471;-86
2022/06/09 12:59:23;;;;;;;9.15;1.65;;;23.20;63.50;;;;;;5000811;28;20033;-88
2022/06/09 13:02:18;;;;;;;7.78;0.95;;;23.10;66.10;;;;;;4988581;28;20046;-89
2022/06/09 13:05:13;;;;;;;2.85;0.77;;;23.00;65.70;;;;;;4986815;28;20038;-85
2022/06/09 13:08:04;;;;;;;4.95;0.85;;;22.90;63.20;;;;;;4983166;28;20034;-86
2022/06/09 13:10:38;;;;;;;3.75;0.80;;;22.50;67.00;;;;;;4994429;28;20120;-90
2022/06/09 13:13:24;;;;;;;5.40;0.98;;;22.90;66.90;;;;;;4994492;28;20510;-87
2022/06/09 13:15:53;;;;;;;5.13;1.58;;;22.70;64.80;;;;;;4997336;28;20022;-88
2022/06/09 13:18:25;;;;;;;9.32;1.15;;;22.70;68.70;;;;;;5001185;28;20495;-93
2022/06/09 13:20:57;;;;;;;4.97;0.70;;;22.90;70.60;;;;;;4994496;28;20030;-87
2022/06/09 13:23:25;;;;;;;6.95;1.10;;;23.20;70.10;;;;;;4998083;28;20022;-90
2022/06/09 13:25:52;;;;;;;7.05;0.75;;;23.50;69.80;;;;;;4996385;28;20030;-90
2022/06/09 13:28:34;;;;;;;5.55;0.93;;;23.20;67.60;;;;;;5000169;28;20092;-85
2022/06/09 13:31:04;;;;;;;7.45;1.40;;;23.10;67.30;;;;;;4989503;28;20127;-90
2022/06/09 13:33:45;;;;;;;10.15;2.05;;;23.60;69.30;;;;;;4992575;28;20022;-88
2022/06/09 13:36:19;;;;;;;12.73;1.63;;;23.90;66.40;;;;;;4994218;28;20046;-88
2022/06/09 13:38:46;;;;;;;12.60;2.03;;;24.10;67.30;;;;;;4993869;28;20018;-86